UAL538 KEWR-KMIA
Flight info
| Callsign | UAL538 |
|---|---|
| Flight time | N/A |
| Altitude | 32000 |
| Route | ELVAE NECCK WHITE Q409 CRPLR BGBRD Q101 SKARP Y313 HOAGG BNFSH3 |
| Aircraft | A21N/M-SDE2E3FGHIJ1RWXY/LB1 |
Departure
| Time | 2026-04-23 12:49 |
|---|---|
| Airport | Newark Liberty International Airport (KEWR) |
Arrival
| Time | N/A |
|---|---|
| Airport | Miami International Airport (KMIA) |
| Time | Latitude | Longitude | Altitude | Speed | Heading |
|---|---|---|---|---|---|
| 2026-04-23 12:24 | 40.69332 | -74.17230 | 27 ft | 0 kts | 12° |
| 2026-04-23 12:39 | 40.69316 | -74.17235 | 27 ft | 4 kts | 23° |
| 2026-04-23 12:39 | 40.69297 | -74.17254 | 27 ft | 4 kts | 67° |
| 2026-04-23 12:39 | 40.69297 | -74.17281 | 27 ft | 2 kts | 122° |
| 2026-04-23 12:40 | 40.69300 | -74.17287 | 27 ft | 0 kts | 123° |
| 2026-04-23 12:42 | 40.69291 | -74.17269 | 27 ft | 5 kts | 123° |
| 2026-04-23 12:42 | 40.69264 | -74.17213 | 27 ft | 9 kts | 122° |
| 2026-04-23 12:42 | 40.69234 | -74.17139 | 27 ft | 10 kts | 118° |
| 2026-04-23 12:43 | 40.69188 | -74.17071 | 27 ft | 11 kts | 175° |
| 2026-04-23 12:43 | 40.69115 | -74.17100 | 27 ft | 12 kts | 202° |
| 2026-04-23 12:43 | 40.69038 | -74.17148 | 27 ft | 13 kts | 206° |
| 2026-04-23 12:43 | 40.68956 | -74.17202 | 27 ft | 14 kts | 206° |
| 2026-04-23 12:44 | 40.68870 | -74.17258 | 28 ft | 14 kts | 206° |
| 2026-04-23 12:44 | 40.68808 | -74.17298 | 28 ft | 15 kts | 206° |
| 2026-04-23 12:44 | 40.68678 | -74.17380 | 29 ft | 16 kts | 205° |
| 2026-04-23 12:44 | 40.68610 | -74.17423 | 29 ft | 17 kts | 205° |
| 2026-04-23 12:45 | 40.68469 | -74.17513 | 28 ft | 17 kts | 207° |
| 2026-04-23 12:45 | 40.68396 | -74.17561 | 28 ft | 18 kts | 206° |
| 2026-04-23 12:45 | 40.68284 | -74.17635 | 27 ft | 18 kts | 206° |
| 2026-04-23 12:45 | 40.68131 | -74.17735 | 27 ft | 19 kts | 206° |
| 2026-04-23 12:46 | 40.68049 | -74.17785 | 27 ft | 19 kts | 201° |
| 2026-04-23 12:46 | 40.67928 | -74.17854 | 28 ft | 20 kts | 208° |
| 2026-04-23 12:46 | 40.67802 | -74.17940 | 28 ft | 20 kts | 206° |
| 2026-04-23 12:46 | 40.67704 | -74.18002 | 28 ft | 15 kts | 206° |
| 2026-04-23 12:47 | 40.67647 | -74.18039 | 28 ft | 8 kts | 206° |
| 2026-04-23 12:47 | 40.67597 | -74.18037 | 28 ft | 9 kts | 133° |
| 2026-04-23 12:47 | 40.67559 | -74.17970 | 28 ft | 10 kts | 114° |
| 2026-04-23 12:47 | 40.67595 | -74.17905 | 28 ft | 11 kts | 27° |
| 2026-04-23 12:48 | 40.67739 | -74.17815 | 27 ft | 51 kts | 25° |
| 2026-04-23 12:48 | 40.68272 | -74.17480 | 28 ft | 117 kts | 25° |
| 2026-04-23 12:48 | 40.69198 | -74.16895 | 29 ft | 176 kts | 26° |
| 2026-04-23 12:48 | 40.70324 | -74.16183 | 597 ft | 175 kts | 26° |
| 2026-04-23 12:49 | 40.71343 | -74.15325 | 1270 ft | 180 kts | 42° |
| 2026-04-23 12:49 | 40.72286 | -74.14148 | 1617 ft | 197 kts | 43° |
| 2026-04-23 12:49 | 40.73339 | -74.12853 | 2065 ft | 212 kts | 43° |
| 2026-04-23 12:49 | 40.74469 | -74.11482 | 2337 ft | 237 kts | 42° |
| 2026-04-23 12:50 | 40.75767 | -74.09988 | 2662 ft | 258 kts | 32° |
| 2026-04-23 12:50 | 40.77420 | -74.09110 | 3359 ft | 256 kts | 5° |
| 2026-04-23 12:50 | 40.79172 | -74.09214 | 4195 ft | 252 kts | 346° |
| 2026-04-23 12:50 | 40.80732 | -74.10188 | 4983 ft | 250 kts | 316° |
| 2026-04-23 12:51 | 40.81694 | -74.12081 | 5775 ft | 252 kts | 291° |
| 2026-04-23 12:51 | 40.82030 | -74.14362 | 6565 ft | 256 kts | 278° |
| 2026-04-23 12:51 | 40.82158 | -74.16722 | 7326 ft | 260 kts | 272° |
| 2026-04-23 12:51 | 40.81732 | -74.19068 | 8024 ft | 271 kts | 248° |
| 2026-04-23 12:52 | 40.80562 | -74.21085 | 8723 ft | 282 kts | 231° |
| 2026-04-23 12:52 | 40.79114 | -74.22857 | 9407 ft | 288 kts | 224° |
| 2026-04-23 12:52 | 40.77305 | -74.24112 | 10041 ft | 303 kts | 201° |
| 2026-04-23 12:52 | 40.75164 | -74.24608 | 10445 ft | 322 kts | 192° |
| 2026-04-23 12:53 | 40.72878 | -74.24908 | 10725 ft | 339 kts | 191° |
| 2026-04-23 12:53 | 40.70469 | -74.25225 | 10984 ft | 356 kts | 191° |
| 2026-04-23 12:53 | 40.67959 | -74.25586 | 11230 ft | 371 kts | 192° |
| 2026-04-23 12:53 | 40.65335 | -74.25986 | 11530 ft | 385 kts | 192° |
| 2026-04-23 12:54 | 40.62661 | -74.26403 | 12064 ft | 390 kts | 192° |
| 2026-04-23 12:54 | 40.59951 | -74.26827 | 12675 ft | 393 kts | 193° |
| 2026-04-23 12:54 | 40.57262 | -74.27247 | 13250 ft | 397 kts | 192° |
| 2026-04-23 12:54 | 40.54463 | -74.27304 | 13820 ft | 410 kts | 178° |
| 2026-04-23 12:55 | 40.51632 | -74.26341 | 14395 ft | 421 kts | 163° |
| 2026-04-23 12:55 | 40.48889 | -74.24934 | 14941 ft | 425 kts | 161° |
| 2026-04-23 12:55 | 40.46167 | -74.23508 | 15434 ft | 429 kts | 162° |
| 2026-04-23 12:55 | 40.43366 | -74.22085 | 15934 ft | 433 kts | 162° |
| 2026-04-23 12:56 | 40.40543 | -74.20671 | 16453 ft | 437 kts | 162° |
| 2026-04-23 12:56 | 40.37684 | -74.19253 | 16948 ft | 441 kts | 163° |
| 2026-04-23 12:56 | 40.34802 | -74.17832 | 17451 ft | 444 kts | 163° |
| 2026-04-23 12:56 | 40.31829 | -74.16756 | 17894 ft | 442 kts | 176° |
| 2026-04-23 12:57 | 40.28790 | -74.16693 | 18355 ft | 434 kts | 193° |
| 2026-04-23 12:57 | 40.25845 | -74.17467 | 18829 ft | 432 kts | 200° |
| 2026-04-23 12:57 | 40.22912 | -74.18413 | 19296 ft | 435 kts | 200° |
| 2026-04-23 12:57 | 40.19963 | -74.19353 | 19761 ft | 438 kts | 200° |
| 2026-04-23 12:58 | 40.16993 | -74.20268 | 20208 ft | 441 kts | 199° |
| 2026-04-23 12:58 | 40.13989 | -74.21174 | 20671 ft | 443 kts | 199° |
| 2026-04-23 12:58 | 40.10972 | -74.22077 | 21103 ft | 446 kts | 199° |
| 2026-04-23 12:58 | 40.07938 | -74.22983 | 21522 ft | 449 kts | 199° |
| 2026-04-23 12:59 | 40.04884 | -74.23888 | 21932 ft | 451 kts | 199° |
| 2026-04-23 12:59 | 40.01856 | -74.24951 | 22329 ft | 448 kts | 206° |
| 2026-04-23 12:59 | 39.99074 | -74.26653 | 22693 ft | 438 kts | 219° |
| 2026-04-23 12:59 | 39.96583 | -74.28899 | 23063 ft | 436 kts | 224° |
| 2026-04-23 13:00 | 39.94145 | -74.31268 | 23426 ft | 438 kts | 224° |
| 2026-04-23 13:00 | 39.91696 | -74.33644 | 23807 ft | 440 kts | 224° |
| 2026-04-23 13:00 | 39.89232 | -74.36022 | 24154 ft | 442 kts | 224° |
| 2026-04-23 13:00 | 39.86748 | -74.38402 | 24471 ft | 446 kts | 224° |
| 2026-04-23 13:01 | 39.84228 | -74.40803 | 24770 ft | 450 kts | 224° |
| 2026-04-23 13:01 | 39.81729 | -74.43246 | 25050 ft | 450 kts | 226° |
| 2026-04-23 13:01 | 39.79465 | -74.46026 | 25330 ft | 446 kts | 233° |
| 2026-04-23 13:01 | 39.77310 | -74.48942 | 25608 ft | 449 kts | 234° |
| 2026-04-23 13:02 | 39.75167 | -74.51852 | 25883 ft | 452 kts | 234° |
| 2026-04-23 13:02 | 39.72972 | -74.54797 | 26133 ft | 457 kts | 233° |
| 2026-04-23 13:02 | 39.70738 | -74.57765 | 26414 ft | 460 kts | 233° |
| 2026-04-23 13:02 | 39.68490 | -74.60740 | 26674 ft | 463 kts | 233° |
| 2026-04-23 13:03 | 39.66225 | -74.63722 | 26936 ft | 466 kts | 233° |
| 2026-04-23 13:03 | 39.63940 | -74.66729 | 27193 ft | 469 kts | 233° |
| 2026-04-23 13:03 | 39.61655 | -74.69751 | 27465 ft | 470 kts | 233° |
| 2026-04-23 13:03 | 39.59360 | -74.72778 | 27835 ft | 470 kts | 233° |
| 2026-04-23 13:04 | 39.57072 | -74.75794 | 28124 ft | 471 kts | 233° |
| 2026-04-23 13:04 | 39.54767 | -74.78825 | 28465 ft | 471 kts | 233° |
| 2026-04-23 13:04 | 39.52468 | -74.81845 | 28768 ft | 472 kts | 233° |
| 2026-04-23 13:04 | 39.50168 | -74.84863 | 29049 ft | 472 kts | 233° |
| 2026-04-23 13:05 | 39.47851 | -74.87901 | 29366 ft | 472 kts | 233° |
| 2026-04-23 13:05 | 39.45544 | -74.90915 | 29683 ft | 472 kts | 233° |
| 2026-04-23 13:05 | 39.43229 | -74.93932 | 29941 ft | 472 kts | 233° |
| 2026-04-23 13:05 | 39.40916 | -74.96955 | 30191 ft | 473 kts | 233° |
| 2026-04-23 13:06 | 39.36305 | -75.02986 | 30799 ft | 471 kts | 233° |
| 2026-04-23 13:06 | 39.34002 | -75.05991 | 31123 ft | 469 kts | 233° |
| 2026-04-23 13:06 | 39.31716 | -75.08966 | 31457 ft | 467 kts | 233° |
| 2026-04-23 13:07 | 39.29392 | -75.11898 | 31751 ft | 468 kts | 231° |
| 2026-04-23 13:07 | 39.26987 | -75.14727 | 32028 ft | 467 kts | 230° |
| 2026-04-23 13:07 | 39.24586 | -75.17535 | 32091 ft | 465 kts | 230° |
| 2026-04-23 13:08 | 39.19802 | -75.23128 | 32068 ft | 464 kts | 230° |
| 2026-04-23 13:08 | 39.15012 | -75.28716 | 32053 ft | 464 kts | 230° |
| 2026-04-23 13:09 | 39.10222 | -75.34296 | 32051 ft | 464 kts | 230° |
| 2026-04-23 13:09 | 39.05414 | -75.39855 | 32039 ft | 466 kts | 228° |
| 2026-04-23 13:09 | 39.02755 | -75.42303 | 32034 ft | 477 kts | 217° |
| 2026-04-23 13:10 | 38.99698 | -75.44083 | 32041 ft | 489 kts | 204° |
| 2026-04-23 13:10 | 38.96353 | -75.45026 | 32052 ft | 497 kts | 192° |
| 2026-04-23 13:10 | 38.92915 | -75.45492 | 32054 ft | 497 kts | 190° |
| 2026-04-23 13:11 | 38.86044 | -75.46320 | 32057 ft | 495 kts | 191° |
| 2026-04-23 13:11 | 38.79202 | -75.47241 | 32061 ft | 493 kts | 191° |
| 2026-04-23 13:12 | 38.72378 | -75.48189 | 32062 ft | 493 kts | 191° |
| 2026-04-23 13:12 | 38.65610 | -75.49110 | 32058 ft | 491 kts | 191° |
| 2026-04-23 13:13 | 38.58813 | -75.50032 | 32053 ft | 491 kts | 191° |
| 2026-04-23 13:13 | 38.52027 | -75.50954 | 32057 ft | 490 kts | 191° |
| 2026-04-23 13:14 | 38.45247 | -75.51869 | 32051 ft | 490 kts | 191° |
| 2026-04-23 13:14 | 38.38460 | -75.52792 | 32050 ft | 490 kts | 191° |
| 2026-04-23 13:15 | 38.32034 | -75.55109 | 32044 ft | 473 kts | 213° |
| 2026-04-23 13:15 | 38.26612 | -75.59640 | 32054 ft | 465 kts | 221° |
| 2026-04-23 13:16 | 38.21304 | -75.64369 | 32053 ft | 467 kts | 221° |
| 2026-04-23 13:16 | 38.15945 | -75.69042 | 32051 ft | 467 kts | 220° |
| 2026-04-23 13:17 | 38.10590 | -75.73688 | 32058 ft | 466 kts | 220° |
| 2026-04-23 13:17 | 38.05230 | -75.78332 | 32060 ft | 466 kts | 220° |
| 2026-04-23 13:18 | 37.99879 | -75.82959 | 32060 ft | 466 kts | 220° |
| 2026-04-23 13:18 | 37.94517 | -75.87584 | 32061 ft | 466 kts | 220° |
| 2026-04-23 13:19 | 37.89154 | -75.92199 | 32059 ft | 466 kts | 220° |
| 2026-04-23 13:19 | 37.83794 | -75.96813 | 32062 ft | 466 kts | 220° |
| 2026-04-23 13:20 | 37.78434 | -76.01417 | 32062 ft | 466 kts | 220° |
| 2026-04-23 13:20 | 37.73064 | -76.06021 | 32060 ft | 467 kts | 220° |
| 2026-04-23 13:21 | 37.67693 | -76.10617 | 32059 ft | 466 kts | 220° |
| 2026-04-23 13:21 | 37.62265 | -76.15130 | 32055 ft | 471 kts | 214° |
| 2026-04-23 13:21 | 37.59254 | -76.16827 | 32058 ft | 479 kts | 202° |
| 2026-04-23 13:22 | 37.55993 | -76.17810 | 32071 ft | 483 kts | 194° |
| 2026-04-23 13:22 | 37.49367 | -76.19188 | 32072 ft | 482 kts | 193° |
| 2026-04-23 13:23 | 37.42754 | -76.20612 | 32079 ft | 482 kts | 194° |
| 2026-04-23 13:23 | 37.36159 | -76.22078 | 32080 ft | 482 kts | 194° |
| 2026-04-23 13:24 | 37.29564 | -76.23546 | 32079 ft | 482 kts | 194° |
| 2026-04-23 13:24 | 37.22970 | -76.25002 | 32079 ft | 481 kts | 194° |
| 2026-04-23 13:25 | 37.16375 | -76.26461 | 32081 ft | 481 kts | 194° |
| 2026-04-23 13:25 | 37.09784 | -76.27916 | 32086 ft | 480 kts | 194° |
| 2026-04-23 13:26 | 37.03203 | -76.29364 | 32090 ft | 480 kts | 193° |
| 2026-04-23 13:26 | 36.96619 | -76.30811 | 32101 ft | 480 kts | 193° |
| 2026-04-23 13:27 | 36.90036 | -76.32256 | 32121 ft | 480 kts | 193° |
| 2026-04-23 13:27 | 36.83459 | -76.33696 | 32121 ft | 480 kts | 193° |
| 2026-04-23 13:28 | 36.76915 | -76.35130 | 32113 ft | 480 kts | 193° |
| 2026-04-23 13:28 | 36.70339 | -76.36565 | 32116 ft | 480 kts | 193° |
| 2026-04-23 13:29 | 36.63764 | -76.37999 | 32104 ft | 480 kts | 193° |
| 2026-04-23 13:29 | 36.57182 | -76.39432 | 32098 ft | 479 kts | 193° |
| 2026-04-23 13:30 | 36.50614 | -76.40860 | 32099 ft | 480 kts | 193° |
| 2026-04-23 13:30 | 36.44032 | -76.42284 | 32101 ft | 480 kts | 193° |
| 2026-04-23 13:31 | 36.37461 | -76.43708 | 32098 ft | 479 kts | 193° |
| 2026-04-23 13:31 | 36.30895 | -76.45127 | 32113 ft | 479 kts | 193° |
| 2026-04-23 13:32 | 36.24327 | -76.46540 | 32106 ft | 479 kts | 193° |